WetterOnline ( https://www.wetteronline.de )

Wetter aktuell Helgoland

Aktuelles Wetter: Helgoland/Düne (8m)

6-stündlich | Neueste Meldungen
Ortszeit Temperatur Wetter
So, 19.05. 20:00 16.3° C leicht bewölkt
So, 19.05. 14:00 17.4° C wolkenlos
So, 19.05. 8:00 14.4° C bewölkt
So, 19.05. 2:00 14.7° C wolkenlos
Sa, 18.05. 20:00 17.0° C wolkenlos
Sa, 18.05. 14:00 17.7° C wolkenlos
Sa, 18.05. 8:00 13.8° C bewölkt
Sa, 18.05. 2:00 13.6° C wolkig
Ortszeit Temperatur Wetter
So, 19.05. 22:00 14.9° C bedeckt
So, 19.05. 21:50 14.9° C bedeckt
So, 19.05. 21:40 14.8° C bedeckt
So, 19.05. 21:30 15.0° C wolkig
So, 19.05. 21:20 15.0° C wolkig
So, 19.05. 21:10 15.1° C leicht bewölkt
So, 19.05. 21:00 15.4° C leicht bewölkt
So, 19.05. 20:30 16.0° C fast wolkenlos
So, 19.05. 20:00 16.3° C leicht bewölkt
So, 19.05. 19:30 16.1° C fast wolkenlos
So, 19.05. 19:00 16.0° C bewölkt
Ortszeit Relative Feuchte Sichtweite
So, 19.05. 20:00 77% 29 km
So, 19.05. 14:00 73% 26 km
So, 19.05. 8:00 82% 35 km
So, 19.05. 2:00 82% 40 km
Sa, 18.05. 20:00 72% 50 km
Sa, 18.05. 14:00 72% 30 km
Sa, 18.05. 8:00 86% 25 km
Sa, 18.05. 2:00 84% 26 km
Ortszeit Relative Feuchte Sichtweite
So, 19.05. 22:00 83% 25 km
So, 19.05. 21:50 83% -
So, 19.05. 21:40 82% -
So, 19.05. 21:30 84% 22 km
So, 19.05. 21:20 84% -
So, 19.05. 21:10 83% -
So, 19.05. 21:00 80% 26 km
So, 19.05. 20:30 78% 28 km
So, 19.05. 20:00 77% 29 km
So, 19.05. 19:30 75% 30 km
So, 19.05. 19:00 76% 35 km
Ortszeit Niederschlagsmenge Niederschlagsart
So, 19.05. 20:00 0.4 l/m2 in 12 Std. Regen
So, 19.05. 14:00 0.0 l/m2 in 6 Std. -
So, 19.05. 8:00 0.0 l/m2 in 12 Std. -
So, 19.05. 2:00 0.0 l/m2 in 6 Std. -
Sa, 18.05. 20:00 0.0 l/m2 in 12 Std. -
Sa, 18.05. 14:00 0.0 l/m2 in 6 Std. -
Sa, 18.05. 8:00 0.0 l/m2 in 12 Std. -
Sa, 18.05. 2:00 0.0 l/m2 in 6 Std. -
Ortszeit Niederschlagsmenge Niederschlagsart
So, 19.05. 22:00 0.0 l/m2 in 1 Std. -
So, 19.05. 21:50 keine Meldung -
So, 19.05. 21:40 keine Meldung -
So, 19.05. 21:30 0.0 l/m2 in 30 Min -
So, 19.05. 21:20 keine Meldung -
So, 19.05. 21:10 keine Meldung -
So, 19.05. 21:00 0.0 l/m2 in 1 Std. -
So, 19.05. 20:30 0.0 l/m2 in 30 Min -
So, 19.05. 20:00 0.0 l/m2 in 1 Std. Regen
So, 19.05. 19:30 0.0 l/m2 in 30 Min -
So, 19.05. 19:00 0.4 l/m2 in 1 Std. Regen
Ortszeit Stärke Spitze Richtung
km/h Bft. km/h Grad Sektor
So, 19.05. 20:00 14 3 40 70° O
So, 19.05. 14:00 11 2 22 340° N
So, 19.05. 8:00 11 2 25 40° NO
So, 19.05. 2:00 17 3 24 50° NO
Sa, 18.05. 20:00 9 2 20 40° NO
Sa, 18.05. 14:00 9 2 24 350° N
Sa, 18.05. 8:00 18 3 29 80° O
Sa, 18.05. 2:00 19 3 44 70° O
Ortszeit Stärke Spitze Richtung
km/h Bft. km/h Grad Sektor
So, 19.05. 22:00 25 4 32 20° N
So, 19.05. 21:50 25 4 - 20° N
So, 19.05. 21:40 22 4 - 10° N
So, 19.05. 21:30 13 3 22 20° N
So, 19.05. 21:20 13 3 - 20° N
So, 19.05. 21:10 7 2 - 50° NO
So, 19.05. 21:00 11 2 24 60° NO
So, 19.05. 20:30 13 3 24 50° NO
So, 19.05. 20:00 14 3 36 70° O
So, 19.05. 19:30 28 4 37 360° N
So, 19.05. 19:00 26 4 41 360° N
Ortszeit Untergrenze Bedeckung Gattung
total tief tief mittel hoch
So, 19.05. 20:00 2100 m 4/8 4/8 - - -
So, 19.05. 14:00 - 0/8 0/8 - - -
So, 19.05. 8:00 2100 m 8/8 7/8 - - -
So, 19.05. 2:00 - 0/8 0/8 - - -
Sa, 18.05. 20:00 - 0/8 0/8 - - -
Sa, 18.05. 14:00 - 0/8 0/8 - - -
Sa, 18.05. 8:00 2700 m 7/8 7/8 - - -
Sa, 18.05. 2:00 2700 m 6/8 6/8 - - -
Ortszeit Bedeckungsgrad in Achtel und Wolkenuntergrenze
So, 19.05. 22:00 8(3000m)
So, 19.05. 21:50 8(3000m)
So, 19.05. 21:40 8
So, 19.05. 21:30 6(3000m)
So, 19.05. 21:20 6(3000m)
So, 19.05. 21:10 2
So, 19.05. 21:00 3(2100m)
So, 19.05. 20:30 1(2100m)
So, 19.05. 20:00 4(2100m)
So, 19.05. 19:30 1(3600m)
So, 19.05. 19:00 4(1800m) 5(2400m) 8(3600m)
Ortszeit Luftdruck NN (hPa) Tendenz (hPa in 3 Std.)
So, 19.05. 20:00 1010 - 0,1
So, 19.05. 14:00 1012 - 0,2
So, 19.05. 8:00 1011 + 0,7
So, 19.05. 2:00 1012 - 0,3
Sa, 18.05. 20:00 1011 - 0,6
Sa, 18.05. 14:00 1013 - 0,1
Sa, 18.05. 8:00 1012 + 0,8
Sa, 18.05. 2:00 1011 0,0
Ortszeit Luftdruck NN (hPa) Tendenz (hPa in 3 Std.)
So, 19.05. 22:00 1011 + 0,8
So, 19.05. 21:50 1011 keine Meldung
So, 19.05. 21:40 1011 keine Meldung
So, 19.05. 21:30 1011 + 0,8
So, 19.05. 21:20 1011 keine Meldung
So, 19.05. 21:10 1011 keine Meldung
So, 19.05. 21:00 1011 + 0,7
So, 19.05. 20:30 1010 + 0,2
So, 19.05. 20:00 1010 - 0,1
So, 19.05. 19:30 1010 - 0,7
So, 19.05. 19:00 1010 - 0,8
Ortszeit Schneehöhe (cm)
So, 19.05. 20:00 0
So, 19.05. 14:00 0
So, 19.05. 8:00 0
So, 19.05. 2:00 0
Sa, 18.05. 20:00 0
Sa, 18.05. 14:00 0
Sa, 18.05. 8:00 0
Sa, 18.05. 2:00 0
Ortszeit Schneehöhe (cm)
So, 19.05. 22:00 0
So, 19.05. 21:50 0
So, 19.05. 21:40 -
So, 19.05. 21:30 0
So, 19.05. 21:20 0
So, 19.05. 21:10 -
So, 19.05. 21:00 0
So, 19.05. 20:30 0
So, 19.05. 20:00 0
So, 19.05. 19:30 0
So, 19.05. 19:00 0
Link zu dieser Seite / Seite empfehlen

Das Wetter in ...